Allisonia, Virginia
Current Conditions -  °F | °C
As of 11:15 PM on Thursday 20 Nov 2014 (Local Time) from KPSK Reporting Station
Clear Clear  
Wind Chill: 26°   Ceiling: Unl
Heat Index: 35°   Visibility: 10mi
Dew Point: 14°   Wind: 14mph
Humidity: 42%   Direction: 270°W
Pressure: 30.12"   Gusts: 21mph
Location:  36.9752°N, 80.6434°W
Report Text: KPSK 210415Z AUTO 27012G18KT 10SM CLR 02/M10 A3012 RMK AO2 T00181100
Loading
Personal Weather Stations






























Interactive Weather Map New forecast layout! Learn more

10-Day Weather Forecast

Advertisements
Track Severe Weather on mobile